Station: EBLB - 26/04/2017 11:25Z (il y a 16 minutes)
EBLB 261125Z AUTO 35005KT 9999 BKN029/// OVC055/// 05/M05 Q1011 BLU
Vent du 350º - 5 kt
Visibilité > 10 km
Ciel 75% couvert à 2900 pieds - Ciel couvert à 5500 pieds
Température: +05ºC - Point de rosée: -05ºC - QNH: 1011 hPa
Code couleur militaire: BLU (conditions VMC)